Time;durP1;ratioP1;P1;durP2;ratioP2;P2;SDS_P1;SDS_P2;PMS_P1;PMS_P2;Temp;Humidity;BMP_temperature;BMP_pressure;BME280_temperature;BME280_humidity;BME280_pressure;Samples;Min_cycle;Max_cycle;Signal;HPM_P1;HPM_P2
2022/06/12 00:02:15;;;;;;;5.93;3.45;;;;;;;14.54;100.00;99290.94;5006446;28;20057;-70
2022/06/12 00:04:41;;;;;;;7.70;4.07;;;;;;;14.43;100.00;99282.38;5004064;28;20070;-70
2022/06/12 00:07:07;;;;;;;9.32;3.50;;;;;;;14.35;100.00;99292.66;5008372;28;20030;-69
2022/06/12 00:09:32;;;;;;;5.57;3.30;;;;;;;14.39;100.00;99280.31;5002496;28;20528;-70
2022/06/12 00:11:58;;;;;;;4.40;2.97;;;;;;;14.34;100.00;99291.00;5009654;28;20072;-70
2022/06/12 00:14:23;;;;;;;7.07;3.38;;;;;;;14.29;100.00;99286.22;4992582;28;20100;-70
2022/06/12 00:16:52;;;;;;;6.03;3.70;;;;;;;14.35;100.00;99281.78;4994277;28;20026;-70
2022/06/12 00:19:17;;;;;;;8.65;3.35;;;;;;;14.36;100.00;99283.47;4992388;28;20022;-70
2022/06/12 00:21:43;;;;;;;5.30;3.35;;;;;;;14.30;100.00;99284.31;4985318;28;20347;-70
2022/06/12 00:24:12;;;;;;;4.45;3.17;;;;;;;14.24;100.00;99286.84;4991126;28;20094;-71
2022/06/12 00:26:41;;;;;;;9.30;3.10;;;;;;;14.20;100.00;99285.63;4994498;28;20022;-70
2022/06/12 00:29:10;;;;;;;4.45;3.40;;;;;;;14.09;100.00;99272.66;4985479;28;20042;-70
2022/06/12 00:31:38;;;;;;;6.55;3.47;;;;;;;14.08;100.00;99279.16;4981896;28;20076;-70
2022/06/12 00:34:05;;;;;;;4.65;3.42;;;;;;;14.03;100.00;99281.69;4985767;28;20065;-69
2022/06/12 00:36:32;;;;;;;5.55;3.50;;;;;;;13.92;100.00;99291.34;4993345;28;20034;-69
2022/06/12 00:38:57;;;;;;;4.90;3.42;;;;;;;13.91;100.00;99281.53;4991191;28;20035;-69
2022/06/12 00:41:24;;;;;;;5.47;3.35;;;;;;;13.82;100.00;99286.34;4986711;28;20583;-69
2022/06/12 00:43:49;;;;;;;8.80;3.20;;;;;;;13.78;100.00;99282.41;4983614;28;20030;-70
2022/06/12 00:46:33;;;;;;;4.00;2.97;;;;;;;13.81;100.00;99281.13;4983297;28;20307;-69
2022/06/12 00:48:58;;;;;;;4.47;3.15;;;;;;;13.78;100.00;99268.81;4988511;28;20026;-69
2022/06/12 00:51:24;;;;;;;6.15;3.47;;;;;;;13.72;100.00;99266.91;4989543;28;20076;-69
2022/06/12 00:53:54;;;;;;;4.35;3.30;;;;;;;13.72;100.00;99271.53;4986551;28;20077;-69
2022/06/12 00:56:24;;;;;;;6.15;3.75;;;;;;;13.75;100.00;99280.09;4982983;28;20030;-69
2022/06/12 00:58:53;;;;;;;9.35;3.55;;;;;;;13.72;100.00;99285.94;4992990;28;20403;-69
2022/06/12 01:01:32;;;;;;;6.50;3.72;;;;;;;13.61;100.00;99281.16;4988645;28;20042;-69
2022/06/12 01:06:44;;;;;;;5.93;4.18;;;;;;;13.65;100.00;99276.13;4985184;28;20069;-70
2022/06/12 01:09:14;;;;;;;6.03;4.30;;;;;;;13.65;100.00;99276.13;4987663;28;20029;-70
2022/06/12 01:11:44;;;;;;;6.97;4.05;;;;;;;13.51;100.00;99280.75;4986240;28;20049;-70
2022/06/12 01:14:13;;;;;;;7.30;4.05;;;;;;;13.51;100.00;99276.16;4987419;28;20022;-70
2022/06/12 01:16:45;;;;;;;5.88;4.03;;;;;;;13.53;100.00;99256.91;4987634;28;20030;-70
2022/06/12 01:19:21;;;;;;;7.28;4.10;;;;;;;13.63;100.00;99283.69;4990694;28;20034;-69
2022/06/12 01:21:55;;;;;;;7.40;4.28;;;;;;;13.76;100.00;99279.06;4989902;28;20086;-69
2022/06/12 01:24:30;;;;;;;7.43;3.90;;;;;;;13.79;100.00;99283.22;4990140;28;20081;-69
2022/06/12 01:27:33;;;;;;;6.03;3.70;;;;;;;13.77;100.00;99283.44;4989471;28;20037;-69
2022/06/12 01:30:08;;;;;;;9.57;4.50;;;;;;;13.66;100.00;99267.78;4984086;28;20042;-69
2022/06/12 01:32:52;;;;;;;6.65;3.72;;;;;;;13.67;100.00;99274.88;4990884;28;20041;-70
2022/06/12 01:35:24;;;;;;;7.85;4.22;;;;;;;13.62;100.00;99277.38;4988892;28;20048;-70
2022/06/12 01:38:01;;;;;;;5.65;3.35;;;;;;;13.71;100.00;99259.81;4983242;28;20035;-70
2022/06/12 01:40:56;;;;;;;8.60;4.00;;;;;;;13.67;100.00;99276.75;4991198;28;20036;-70
2022/06/12 01:43:27;;;;;;;7.45;4.10;;;;;;;13.71;100.00;99275.31;4987891;28;20723;-70
2022/06/12 01:46:06;;;;;;;6.78;3.80;;;;;;;13.65;100.00;99265.25;4988713;28;20391;-70
2022/06/12 01:48:47;;;;;;;5.35;3.22;;;;;;;13.49;100.00;99271.97;4986985;28;20030;-70
2022/06/12 01:51:29;;;;;;;5.72;3.10;;;;;;;13.47;100.00;99274.09;4985029;28;20026;-70
2022/06/12 01:54:17;;;;;;;10.88;3.88;;;;;;;13.35;100.00;99279.31;4981558;28;20035;-70
2022/06/12 01:57:07;;;;;;;9.53;3.60;;;;;;;13.34;100.00;99269.50;4988474;28;20077;-70
2022/06/12 01:59:39;;;;;;;;;;;;;;;13.26;100.00;99266.97;4986640;28;20034;-70
2022/06/12 02:02:32;;;;;;;5.80;3.75;;;;;;;13.23;100.00;99270.06;4983139;28;19921;-70
2022/06/12 02:05:23;;;;;;;9.38;3.45;;;;;;;13.36;100.00;99273.66;4983150;28;20432;-70
2022/06/12 02:08:01;;;;;;;5.93;3.58;;;;;;;13.22;100.00;99269.25;4992871;28;20022;-70
2022/06/12 02:10:48;;;;;;;5.55;3.67;;;;;;;13.29;100.00;99269.28;4990366;28;20385;-70
2022/06/12 02:13:28;;;;;;;5.35;3.47;;;;;;;13.32;100.00;99266.97;5002031;28;20098;-70
2022/06/12 02:15:57;;;;;;;5.15;3.53;;;;;;;13.35;100.00;99271.97;5002546;28;20065;-70
2022/06/12 02:18:25;;;;;;;4.82;3.22;;;;;;;13.38;100.00;99265.28;5006879;28;20018;-70
2022/06/12 02:21:13;;;;;;;6.32;3.15;;;;;;;13.30;100.00;99262.78;5009290;28;20037;-70
2022/06/12 02:23:46;;;;;;;6.90;3.20;;;;;;;13.23;100.00;99268.22;4976950;28;20034;-70
2022/06/12 02:26:15;;;;;;;4.68;3.42;;;;;;;13.11;100.00;99269.88;5001641;28;20085;-69
2022/06/12 02:29:04;;;;;;;4.53;3.33;;;;;;;13.02;100.00;99266.53;5010748;28;20030;-70
2022/06/12 02:31:36;;;;;;;4.10;3.20;;;;;;;13.02;100.00;99271.09;5006942;28;20026;-70
2022/06/12 02:34:06;;;;;;;4.55;3.42;;;;;;;13.02;100.00;99273.81;5006162;28;20068;-70
2022/06/12 02:36:41;;;;;;;6.15;2.97;;;;;;;12.99;100.00;99275.06;5010397;28;20018;-70
2022/06/12 02:39:24;;;;;;;11.45;3.85;;;;;;;13.05;100.00;99270.72;5005312;28;20026;-70
2022/06/12 02:41:55;;;;;;;7.35;3.65;;;;;;;13.06;100.00;99275.09;4998334;28;20487;-70
2022/06/12 02:44:47;;;;;;;5.47;3.50;;;;;;;13.03;100.00;99272.78;4991114;28;20033;-70
2022/06/12 02:47:20;;;;;;;7.03;3.28;;;;;;;13.06;100.00;99269.66;4976533;28;20035;-70
2022/06/12 02:49:47;;;;;;;5.22;3.75;;;;;;;13.07;100.00;99271.31;4985451;28;20049;-70
2022/06/12 02:52:33;;;;;;;7.35;3.33;;;;;;;12.99;100.00;99249.78;4985862;28;20026;-71
2022/06/12 02:55:08;;;;;;;4.05;3.08;;;;;;;13.09;100.00;99272.78;4987410;28;20445;-71
2022/06/12 02:57:55;;;;;;;5.28;3.40;;;;;;;13.04;100.00;99269.84;4992440;28;20034;-71
2022/06/12 03:00:40;;;;;;;6.97;3.88;;;;;;;12.99;100.00;99266.91;4985925;28;20492;-71
2022/06/12 03:03:35;;;;;;;6.13;3.90;;;;;;;12.89;100.00;99266.50;4991340;28;20030;-71
2022/06/12 03:06:01;;;;;;;4.85;3.22;;;;;;;12.78;100.00;99270.66;4989010;28;20057;-71
2022/06/12 03:08:40;;;;;;;5.78;3.60;;;;;;;12.83;100.00;99273.59;4994718;28;20108;-71
2022/06/12 03:11:08;;;;;;;6.53;3.78;;;;;;;12.69;100.00;99274.63;4996440;28;20033;-71
2022/06/12 03:13:36;;;;;;;5.03;3.63;;;;;;;12.60;100.00;99268.56;4993001;28;20326;-71
2022/06/12 03:16:07;;;;;;;4.47;3.33;;;;;;;12.53;100.00;99275.00;4989987;28;20034;-71
2022/06/12 03:18:38;;;;;;;6.20;3.58;;;;;;;12.57;100.00;99270.81;4992627;28;20030;-71
2022/06/12 03:21:15;;;;;;;6.70;3.10;;;;;;;12.61;100.00;99264.78;4992977;28;20052;-71
2022/06/12 03:23:48;;;;;;;7.78;4.07;;;;;;;12.68;100.00;99270.22;4990257;28;20033;-71
2022/06/12 03:26:38;;;;;;;5.03;3.92;;;;;;;12.76;100.00;99271.91;4994089;28;20105;-71
2022/06/12 03:29:38;;;;;;;4.68;3.05;;;;;;;12.63;100.00;99260.00;4985734;28;20053;-71
2022/06/12 03:32:29;;;;;;;6.00;3.67;;;;;;;12.65;100.00;99265.19;4988067;28;20149;-71
2022/06/12 03:35:09;;;;;;;8.98;3.75;;;;;;;12.55;100.00;99259.31;4991024;28;20034;-71
2022/06/12 03:37:45;;;;;;;5.68;3.38;;;;;;;12.64;100.00;99274.41;4993831;28;20031;-71
2022/06/12 03:40:24;;;;;;;5.40;3.47;;;;;;;12.65;100.00;99265.19;4995748;28;20050;-70
2022/06/12 03:42:55;;;;;;;7.18;3.90;;;;;;;12.68;100.00;99264.78;4991157;28;20404;-71
2022/06/12 03:45:37;;;;;;;8.65;3.58;;;;;;;12.74;100.00;99255.84;4989313;28;20066;-71
2022/06/12 03:48:12;;;;;;;5.22;4.00;;;;;;;12.85;100.00;99273.41;4986650;28;20109;-71
2022/06/12 03:50:49;;;;;;;6.15;3.50;;;;;;;12.99;100.00;99279.66;4991521;28;20034;-71
2022/06/12 03:53:29;;;;;;;4.82;3.50;;;;;;;13.08;100.00;99276.56;4992783;28;20026;-71
2022/06/12 03:59:15;;;;;;;6.60;3.20;;;;;;;13.16;100.00;99280.94;4991145;28;20120;-71
2022/06/12 04:01:43;;;;;;;5.38;3.40;;;;;;;13.19;100.00;99269.66;4984357;28;20530;-71
2022/06/12 04:04:09;;;;;;;6.40;3.75;;;;;;;13.20;100.00;99284.91;4985195;28;20027;-71
2022/06/12 04:06:36;;;;;;;8.52;3.80;;;;;;;13.18;100.00;99276.16;4987355;28;20034;-71
2022/06/12 04:09:06;;;;;;;6.57;3.63;;;;;;;13.23;100.00;99283.66;4987213;28;20465;-71
2022/06/12 04:11:37;;;;;;;5.25;3.53;;;;;;;13.29;100.00;99280.97;4992532;28;20036;-71
2022/06/12 04:14:05;;;;;;;8.77;4.00;;;;;;;13.38;100.00;99281.59;4990705;28;20529;-71
2022/06/12 04:16:38;;;;;;;5.55;4.10;;;;;;;13.40;100.00;99274.06;4983100;28;20085;-71
2022/06/12 04:19:06;;;;;;;8.32;3.85;;;;;;;13.47;100.00;99272.19;4988673;28;20034;-71
2022/06/12 04:21:34;;;;;;;6.07;4.00;;;;;;;13.61;100.00;99286.59;4983922;28;20121;-71
2022/06/12 04:24:19;;;;;;;10.02;4.78;;;;;;;13.72;100.00;99293.28;4985050;28;20484;-71
2022/06/12 04:27:07;;;;;;;6.60;5.13;;;;;;;13.74;100.00;99283.84;4984097;28;20034;-71
2022/06/12 04:29:38;;;;;;;7.80;4.40;;;;;;;13.85;100.00;99293.25;4991742;28;20120;-71
2022/06/12 04:32:06;;;;;;;5.93;4.13;;;;;;;14.00;100.00;99284.84;4986700;28;20042;-71
2022/06/12 04:34:37;;;;;;;7.97;4.28;;;;;;;14.15;100.00;99287.31;4984593;28;20058;-71
2022/06/12 04:37:14;;;;;;;7.35;3.42;;;;;;;14.25;100.00;99288.53;4985808;28;20798;-71
2022/06/12 04:39:40;;;;;;;5.80;3.60;;;;;;;14.39;100.00;99283.03;4990756;28;20097;-71
2022/06/12 04:42:06;;;;;;;5.30;3.40;;;;;;;14.53;100.00;99284.66;4991589;28;20027;-71
2022/06/12 04:44:32;;;;;;;5.35;3.53;;;;;;;14.65;100.00;99296.53;4988443;28;20030;-71
2022/06/12 04:46:59;;;;;;;12.75;6.13;;;;;;;14.65;100.00;99282.94;5008292;22;20728;-67
2022/06/12 04:49:27;;;;;;;13.05;5.88;;;;;;;14.82;100.00;99294.13;5008771;28;20045;-67
2022/06/12 04:51:56;;;;;;;12.93;7.13;;;;;;;14.94;100.00;99293.47;5004235;28;20051;-67
2022/06/12 04:54:23;;;;;;;10.25;5.65;;;;;;;15.10;100.00;99299.19;5005887;28;20027;-67
2022/06/12 04:56:48;;;;;;;10.85;5.15;;;;;;;15.26;100.00;99299.72;5006464;28;20030;-66
2022/06/12 04:59:17;;;;;;;11.38;5.68;;;;;;;15.33;100.00;99295.06;4993724;28;20502;-68
2022/06/12 05:01:43;;;;;;;6.10;4.22;;;;;;;15.52;100.00;99295.94;4985321;28;20073;-67
2022/06/12 05:04:10;;;;;;;4.30;3.40;;;;;;;15.68;100.00;99308.16;4987101;28;20018;-68
2022/06/12 05:06:37;;;;;;;8.32;3.45;;;;;;;15.73;100.00;99292.00;4983573;28;20022;-67
2022/06/12 05:09:04;;;;;;;6.18;3.38;;;;;;;15.86;100.00;99277.38;4989362;28;20085;-68
2022/06/12 05:11:30;;;;;;;6.35;3.50;;;;;;;16.34;100.00;99296.56;4990420;28;20676;-68
2022/06/12 05:13:55;;;;;;;7.53;3.28;;;;;;;16.43;100.00;99281.53;4990996;28;20121;-68
2022/06/12 05:16:34;;;;;;;6.00;3.40;;;;;;;16.64;100.00;99302.06;4985925;28;20113;-67
2022/06/12 05:19:00;;;;;;;5.68;3.35;;;;;;;16.97;100.00;99300.78;4985843;28;20030;-68
2022/06/12 05:21:28;;;;;;;4.97;2.97;;;;;;;17.27;100.00;99308.13;4981784;28;20606;-68
2022/06/12 05:23:53;;;;;;;5.78;3.13;;;;;;;17.45;100.00;99296.28;4990664;28;20441;-68
2022/06/12 05:26:20;;;;;;;6.95;3.33;;;;;;;17.47;100.00;99308.63;4988805;28;20104;-68
2022/06/12 05:28:46;;;;;;;5.70;3.05;;;;;;;17.70;100.00;99301.50;4989341;28;20107;-67
2022/06/12 05:31:12;;;;;;;7.90;2.90;;;;;;;17.79;100.00;99293.78;4988192;28;20035;-67
2022/06/12 05:33:38;;;;;;;7.85;2.95;;;;;;;18.17;100.00;99294.13;4986916;28;20040;-68
2022/06/12 05:36:04;;;;;;;7.28;2.90;;;;;;;18.24;100.00;99280.31;4988807;28;20034;-68
2022/06/12 05:38:30;;;;;;;5.20;2.67;;;;;;;18.22;100.00;99284.38;4989545;28;20050;-68
2022/06/12 05:40:55;;;;;;;4.93;2.85;;;;;;;18.41;100.00;99296.81;4990624;28;20092;-67
2022/06/12 05:43:21;;;;;;;7.38;3.00;;;;;;;18.43;100.00;99285.63;4988306;28;20027;-68
2022/06/12 05:45:47;;;;;;;3.75;2.90;;;;;;;18.20;100.00;99268.16;4992501;28;20027;-67
2022/06/12 05:48:16;;;;;;;4.07;2.60;;;;;;;18.54;100.00;99285.56;4987298;28;20040;-67
2022/06/12 05:50:50;;;;;;;4.15;2.65;;;;;;;18.57;100.00;99287.81;4987005;28;20026;-68
2022/06/12 05:53:15;;;;;;;8.95;3.28;;;;;;;18.82;100.00;99286.69;4983830;28;20034;-67
2022/06/12 05:55:41;;;;;;;6.72;2.95;;;;;;;19.00;100.00;99285.66;4992205;28;20057;-66
2022/06/12 05:58:07;;;;;;;4.93;2.85;;;;;;;19.05;100.00;99289.31;4989331;28;20038;-67
2022/06/12 06:00:33;;;;;;;4.85;3.20;;;;;;;19.32;100.00;99280.44;4988596;28;20073;-66
2022/06/12 06:02:59;;;;;;;4.38;2.70;;;;;;;19.40;100.00;99271.81;4983369;28;20019;-67
2022/06/12 06:05:25;;;;;;;5.03;2.88;;;;;;;19.54;100.00;99279.69;4989828;28;20061;-66
2022/06/12 06:07:50;;;;;;;4.57;2.80;;;;;;;19.64;100.00;99291.66;4991198;28;20053;-67
2022/06/12 06:10:20;;;;;;;4.28;3.10;;;;;;;19.57;98.27;99292.91;4990729;28;20065;-67
2022/06/12 06:12:45;;;;;;;5.55;2.80;;;;;;;19.85;97.36;99289.25;4984607;28;20049;-66
2022/06/12 06:15:12;;;;;;;5.97;2.55;;;;;;;20.00;95.75;99284.00;4985032;28;20672;-66
2022/06/12 06:17:38;;;;;;;8.30;3.17;;;;;;;20.25;98.05;99293.66;4978818;28;20044;-66
2022/06/12 06:20:05;;;;;;;6.30;3.28;;;;;;;20.43;95.70;99296.09;4979762;28;20035;-66
2022/06/12 06:22:31;;;;;;;5.13;2.70;;;;;;;20.74;92.37;99291.00;4977410;28;20081;-69
2022/06/12 06:24:57;;;;;;;6.63;2.88;;;;;;;20.93;92.49;99292.31;4980321;28;20391;-75
2022/06/12 06:27:22;;;;;;;5.32;2.55;;;;;;;21.33;91.50;99287.47;4989878;28;20037;-73
2022/06/12 06:29:47;;;;;;;4.57;2.55;;;;;;;21.51;87.76;99275.22;4989876;28;20199;-70
2022/06/12 06:32:13;;;;;;;5.88;2.85;;;;;;;21.86;85.50;99292.00;4989531;28;20034;-68
2022/06/12 06:34:40;;;;;;;8.52;2.47;;;;;;;21.92;85.74;99287.34;4988894;28;20048;-77
2022/06/12 06:37:07;;;;;;;7.90;2.50;;;;;;;22.41;86.38;99281.59;4989775;28;20061;-70
2022/06/12 06:39:32;;;;;;;3.97;2.58;;;;;;;22.54;85.64;99292.13;4987251;28;20055;-67
2022/06/12 06:41:58;;;;;;;4.07;2.60;;;;;;;;;;4989099;28;20026;-74
2022/06/12 06:47:11;;;;;;;7.47;2.50;;;;;;;22.73;80.42;99253.00;4985839;28;20041;-76
2022/06/12 06:49:37;;;;;;;6.97;2.30;;;;;;;23.51;79.21;99290.69;4993167;28;20034;-76
2022/06/12 06:52:03;;;;;;;7.25;2.70;;;;;;;24.10;73.34;99287.28;4990954;28;20088;-70
2022/06/12 06:54:29;;;;;;;5.13;2.20;;;;;;;24.18;69.34;99300.56;4992466;28;20101;-68
2022/06/12 06:56:55;;;;;;;7.07;2.30;;;;;;;24.97;63.41;99298.03;4990838;28;20049;-71
2022/06/12 06:59:20;;;;;;;10.30;2.20;;;;;;;25.55;58.65;99289.88;4984988;28;20475;-67
2022/06/12 10:52:11;;;;;;;3.72;1.00;;;;;;;39.49;24.41;99129.00;5057910;28;20418;-57
2022/06/12 10:54:37;;;;;;;2.97;0.95;;;;;;;40.74;25.36;99112.91;5033061;28;20116;-58
2022/06/12 10:57:26;;;;;;;3.00;1.00;;;;;;;40.66;23.14;99119.75;5026226;28;20122;-58
2022/06/12 11:00:01;;;;;;;7.28;1.27;;;;;;;39.19;25.18;99112.88;5019552;28;20472;-58
2022/06/12 11:03:12;;;;;;;3.40;1.00;;;;;;;39.38;25.01;99104.22;5020904;28;20118;-58
2022/06/12 11:06:01;;;;;;;1.45;0.68;;;;;;;40.18;24.52;99106.47;5021297;28;20224;-60
2022/06/12 11:08:51;;;;;;;3.00;1.27;;;;;;;39.22;25.21;99106.44;5037339;28;20040;-59
2022/06/12 11:11:38;;;;;;;3.25;1.20;;;;;;;40.40;23.61;99101.75;5040813;28;20175;-59
2022/06/12 11:14:06;;;;;;;2.28;1.17;;;;;;;40.44;25.30;99093.28;5033994;28;20071;-59
2022/06/12 11:16:54;;;;;;;3.05;0.70;;;;;;;41.90;23.93;99095.69;5026930;28;20033;-60
2022/06/12 11:20:04;;;;;;;4.47;0.93;;;;;;;41.39;23.66;99094.03;5034102;28;20028;-60
2022/06/12 11:23:11;;;;;;;1.27;0.90;;;;;;;40.83;24.48;99102.00;5020339;28;20075;-60
2022/06/12 11:25:52;;;;;;;3.60;1.00;;;;;;;40.82;25.27;99093.88;5030902;28;20120;-59
2022/06/12 11:28:46;;;;;;;4.13;1.23;;;;;;;41.28;24.14;99093.22;5042286;28;20029;-59
2022/06/12 11:31:44;;;;;;;3.53;1.05;;;;;;;40.00;25.08;99088.56;5032332;28;20030;-59
2022/06/12 11:34:35;;;;;;;2.28;0.90;;;;;;;41.39;23.19;99082.66;5036401;28;20129;-60
2022/06/12 11:37:18;;;;;;;0.90;0.80;;;;;;;42.12;23.83;99075.75;5024853;28;20029;-60
2022/06/12 11:40:03;;;;;;;1.75;0.80;;;;;;;39.80;24.27;99080.34;5030379;28;20426;-60
2022/06/12 11:42:28;;;;;;;2.60;1.17;;;;;;;37.98;26.67;99081.81;5026255;28;20084;-60
2022/06/12 11:45:37;;;;;;;2.92;0.88;;;;;;;36.85;28.08;99068.09;5024997;28;20029;-59
2022/06/12 11:48:13;;;;;;;3.70;0.90;;;;;;;38.05;26.47;99075.47;4999608;28;20469;-59
2022/06/12 11:51:15;;;;;;;1.75;0.70;;;;;;;39.97;25.32;99067.47;5031569;28;20029;-59
2022/06/12 11:54:06;;;;;;;3.08;0.77;;;;;;;41.17;22.59;99065.59;5031771;28;20060;-59
2022/06/12 11:56:53;;;;;;;2.38;0.73;;;;;;;39.31;24.50;99061.66;5039340;28;20056;-59
2022/06/12 11:59:31;;;;;;;1.10;0.50;;;;;;;39.14;26.01;99053.81;5034038;28;20712;-58
2022/06/12 12:02:12;;;;;;;3.40;1.10;;;;;;;38.96;25.65;99053.63;5030078;28;20040;-59
2022/06/12 12:04:47;;;;;;;2.75;0.90;;;;;;;39.65;24.87;99059.56;5010023;28;20536;-59
2022/06/12 12:07:26;;;;;;;2.00;0.80;;;;;;;39.34;24.38;99057.28;5024714;28;20079;-59
2022/06/12 12:10:06;;;;;;;2.17;0.93;;;;;;;36.76;26.23;99045.78;5021631;28;20088;-59
2022/06/12 12:12:37;;;;;;;1.70;0.80;;;;;;;37.76;26.14;99051.59;5024379;28;20072;-59
2022/06/12 12:15:11;;;;;;;5.13;0.80;;;;;;;38.92;26.80;99036.63;5013757;28;20022;-59
2022/06/12 12:17:40;;;;;;;1.90;0.90;;;;;;;39.16;24.54;99040.09;5011495;28;20025;-59
2022/06/12 12:20:16;;;;;;;3.30;1.02;;;;;;;40.56;24.48;99024.88;5018268;28;20420;-59
2022/06/12 12:22:50;;;;;;;2.40;0.85;;;;;;;41.47;23.51;99030.31;5030224;28;20447;-59
2022/06/12 12:25:23;;;;;;;2.22;0.70;;;;;;;41.46;22.26;99034.38;5020651;28;20030;-59
2022/06/12 12:27:56;;;;;;;2.17;0.80;;;;;;;41.60;23.32;99036.44;5019617;28;20034;-59
2022/06/12 12:30:33;;;;;;;2.97;1.08;;;;;;;41.68;22.97;99040.09;5018102;28;20022;-59
2022/06/12 12:33:02;;;;;;;2.90;1.13;;;;;;;41.70;22.27;99027.09;5019143;28;20029;-59
2022/06/12 12:41:11;;;;;;;5.50;1.00;;;;;;;37.58;24.97;99029.53;5021079;28;20409;-59
2022/06/12 12:43:50;;;;;;;1.58;0.90;;;;;;;35.10;28.28;99022.63;5012080;28;20021;-59
2022/06/12 12:46:16;;;;;;;2.38;1.05;;;;;;;34.23;30.35;99027.78;5014333;28;20030;-58
2022/06/12 12:48:47;;;;;;;3.13;1.00;;;;;;;35.85;28.27;99020.84;5030697;28;20171;-59
2022/06/12 12:51:24;;;;;;;5.07;1.10;;;;;;;36.10;28.36;99022.25;5026614;28;20115;-59
2022/06/12 12:53:52;;;;;;;1.42;0.77;;;;;;;35.60;29.33;99017.44;5009781;28;20030;-59
2022/06/12 12:56:33;;;;;;;4.80;1.00;;;;;;;34.73;30.24;99017.19;5016956;28;20163;-59
2022/06/12 12:59:02;;;;;;;3.47;1.10;;;;;;;34.94;29.43;99016.13;5014451;28;20505;-59
2022/06/12 13:01:41;;;;;;;2.30;1.33;;;;;;;37.06;28.24;99011.31;5033663;28;20428;-59
2022/06/12 13:04:22;;;;;;;;;;;;;;;38.32;27.23;99014.06;5023816;28;20128;-59
2022/06/12 13:06:57;;;;;;;2.80;0.98;;;;;;;39.55;25.76;99002.84;5019621;28;19913;-59
2022/06/12 13:10:02;;;;;;;3.13;1.08;;;;;;;37.94;25.83;99005.47;5024946;28;20029;-59
2022/06/12 13:13:02;;;;;;;2.10;1.00;;;;;;;36.38;27.55;99004.31;5030856;28;20087;-59
2022/06/12 13:15:43;;;;;;;2.05;0.93;;;;;;;37.02;26.95;99005.59;5026665;28;20025;-59
2022/06/12 13:18:46;;;;;;;3.50;1.23;;;;;;;38.30;25.56;98999.50;5014723;28;20022;-59
2022/06/12 13:21:38;;;;;;;4.15;1.23;;;;;;;36.66;28.19;98990.00;5020698;28;20529;-62
2022/06/12 13:24:24;;;;;;;2.63;1.10;;;;;;;35.67;29.70;99003.56;5026302;28;20035;-60
2022/06/12 13:26:49;;;;;;;2.20;0.90;;;;;;;34.40;30.49;98975.28;5013629;28;20137;-60
2022/06/12 13:29:19;;;;;;;2.28;1.02;;;;;;;32.35;33.57;98992.16;5019929;28;20464;-60
2022/06/12 13:32:02;;;;;;;3.17;1.15;;;;;;;33.25;34.09;98982.97;5023542;28;20072;-60
2022/06/12 13:34:30;;;;;;;2.28;1.25;;;;;;;33.55;33.59;98980.75;5036803;28;20037;-60
2022/06/12 13:36:58;;;;;;;2.30;1.15;;;;;;;34.07;33.64;98973.56;5009665;28;20069;-60
2022/06/12 13:39:37;;;;;;;2.87;1.07;;;;;;;33.94;34.05;98966.31;5023629;28;20021;-60
2022/06/12 13:42:12;;;;;;;6.55;1.20;;;;;;;33.84;33.10;98970.44;5013924;28;20094;-60
2022/06/12 13:44:40;;;;;;;2.22;1.10;;;;;;;35.03;32.08;98964.19;5013326;28;20025;-60
2022/06/12 13:47:24;;;;;;;1.17;0.70;;;;;;;36.89;29.40;98967.47;5023423;28;20131;-59
2022/06/12 13:50:15;;;;;;;2.13;1.00;;;;;;;38.06;27.45;98970.53;5014770;28;20053;-61
2022/06/12 13:52:47;;;;;;;2.13;1.00;;;;;;;39.01;25.39;98971.22;5018806;28;20034;-59
2022/06/12 13:55:21;;;;;;;1.17;0.80;;;;;;;39.69;26.07;98960.44;5014879;28;20033;-60
2022/06/12 13:57:47;;;;;;;2.05;0.95;;;;;;;37.54;25.90;98963.72;5009606;28;20033;-60
2022/06/12 14:00:27;;;;;;;2.20;0.90;;;;;;;36.47;28.18;98959.00;5022329;28;20029;-60
2022/06/12 14:02:54;;;;;;;2.67;0.80;;;;;;;36.01;28.88;98958.84;5016464;28;20029;-60
2022/06/12 14:05:28;;;;;;;2.65;0.98;;;;;;;36.07;29.70;98960.22;5016722;28;20036;-60
2022/06/12 14:07:55;;;;;;;1.92;0.90;;;;;;;36.73;28.14;98961.94;5015315;28;20431;-60
2022/06/12 14:10:45;;;;;;;2.80;0.77;;;;;;;37.80;28.36;98945.16;5018546;28;20029;-60
2022/06/12 14:13:36;;;;;;;2.50;0.80;;;;;;;37.97;26.95;98950.25;5030814;28;20103;-60
2022/06/12 14:16:09;;;;;;;2.47;0.80;;;;;;;37.03;28.02;98941.56;5034434;28;20452;-60
2022/06/12 14:18:34;;;;;;;1.85;0.90;;;;;;;35.95;28.90;98939.44;5025585;28;20036;-60
2022/06/12 14:21:17;;;;;;;1.17;0.80;;;;;;;34.60;30.29;98940.56;5011064;28;20030;-60
2022/06/12 14:23:49;;;;;;;1.67;0.80;;;;;;;34.31;31.74;98933.31;5016443;28;20112;-59
2022/06/12 14:26:37;;;;;;;2.45;1.00;;;;;;;35.09;31.03;98931.81;5009716;28;20022;-59
2022/06/12 14:29:23;;;;;;;;;;;;;;;36.27;28.49;98918.78;5022511;28;20068;-59
2022/06/12 14:31:48;;;;;;;5.85;1.30;;;;;;;37.67;27.92;98928.44;5008374;28;19946;-59
2022/06/12 14:34:24;;;;;;;2.08;0.98;;;;;;;37.32;27.98;98917.41;5013439;28;20037;-59
2022/06/12 14:36:55;;;;;;;1.73;1.10;;;;;;;35.36;29.92;98926.41;5015266;28;20021;-59
2022/06/12 14:39:30;;;;;;;3.83;0.98;;;;;;;34.19;32.27;98928.59;5011911;28;20029;-58
2022/06/12 14:42:01;;;;;;;1.65;1.17;;;;;;;34.91;30.63;98922.09;5012667;28;20018;-59
2022/06/12 14:44:29;;;;;;;3.05;1.00;;;;;;;36.36;28.25;98914.50;5025565;28;20029;-59
2022/06/12 14:46:55;;;;;;;2.30;1.10;;;;;;;37.02;27.06;98917.31;5028176;28;20025;-59
2022/06/12 14:49:23;;;;;;;2.22;1.13;;;;;;;36.26;28.28;98908.66;5023087;28;20033;-59
2022/06/12 14:51:52;;;;;;;;;;;;;;;36.25;29.19;98913.50;5024200;28;20159;-59
2022/06/12 14:54:18;;;;;;;5.07;1.00;;;;;;;35.40;29.60;98904.81;5041725;28;19958;-59
2022/06/12 14:56:44;;;;;;;1.73;1.10;;;;;;;35.29;29.99;98906.53;5015829;28;20029;-59
2022/06/12 14:59:29;;;;;;;1.55;0.80;;;;;;;34.93;31.38;98897.25;5025389;28;20040;-59
2022/06/12 15:01:55;;;;;;;2.22;1.10;;;;;;;35.26;30.06;98902.47;5008341;28;20071;-59
2022/06/12 15:04:21;;;;;;;2.53;1.20;;;;;;;35.36;30.42;98897.47;5012686;28;20037;-59
2022/06/12 15:06:47;;;;;;;2.78;1.00;;;;;;;36.14;29.38;98898.41;5034910;28;20032;-59
2022/06/12 15:09:12;;;;;;;2.17;0.88;;;;;;;36.47;28.60;98891.34;5032535;28;20025;-59
2022/06/12 15:11:39;;;;;;;3.00;1.20;;;;;;;35.84;28.67;98890.50;5018470;28;20061;-59
2022/06/12 15:14:06;;;;;;;3.00;1.08;;;;;;;36.00;29.95;98882.00;5022678;28;20041;-59
2022/06/12 15:16:33;;;;;;;1.67;0.90;;;;;;;36.29;29.50;98883.41;5026376;28;20025;-59
2022/06/12 15:19:00;;;;;;;2.30;1.10;;;;;;;34.28;30.71;98885.47;5014106;28;20118;-59
2022/06/12 15:21:35;;;;;;;3.42;1.10;;;;;;;33.65;31.81;98884.06;5019136;28;20030;-58
2022/06/12 15:24:03;;;;;;;3.38;1.20;;;;;;;32.79;32.67;98875.72;5010357;28;20037;-58
2022/06/12 15:31:57;;;;;;;4.13;1.20;;;;;;;35.16;31.08;98866.47;5009658;28;20507;-58
2022/06/12 15:34:23;;;;;;;3.67;0.93;;;;;;;35.25;31.12;98863.47;5006977;28;20144;-58
2022/06/12 15:36:48;;;;;;;3.13;1.10;;;;;;;35.17;31.37;98856.06;5003309;28;20033;-58
2022/06/12 15:39:13;;;;;;;2.40;1.30;;;;;;;34.82;31.42;98856.78;5015804;28;20029;-59
2022/06/12 15:41:39;;;;;;;2.03;1.35;;;;;;;34.36;31.12;98853.59;5010119;28;20033;-59
2022/06/12 15:44:06;;;;;;;1.83;1.10;;;;;;;34.39;31.00;98847.25;5016393;28;20060;-59
2022/06/12 15:46:31;;;;;;;3.25;1.20;;;;;;;34.14;31.56;98846.56;5016606;28;20366;-59
2022/06/12 15:48:57;;;;;;;2.72;0.95;;;;;;;33.53;30.54;98845.59;5026059;28;20041;-59
2022/06/12 15:51:23;;;;;;;1.60;1.10;;;;;;;33.57;31.02;98851.38;5019869;28;20018;-59
2022/06/12 15:53:51;;;;;;;3.08;1.23;;;;;;;33.24;30.63;98849.53;5022215;28;20465;-59
2022/06/12 15:56:20;;;;;;;3.95;1.25;;;;;;;33.14;31.62;98844.41;5026537;28;20026;-59
2022/06/12 15:58:46;;;;;;;2.92;1.00;;;;;;;33.12;31.25;98855.19;5028233;28;20030;-59
2022/06/12 16:01:38;;;;;;;2.53;1.10;;;;;;;33.39;31.48;98845.19;5027174;28;20029;-59
2022/06/12 16:04:04;;;;;;;3.53;1.02;;;;;;;33.35;32.22;98833.88;5014937;28;20056;-59
2022/06/12 16:06:31;;;;;;;1.15;0.90;;;;;;;32.94;31.30;98832.16;5017030;28;20029;-59
2022/06/12 16:08:56;;;;;;;3.35;1.00;;;;;;;32.66;31.05;98832.84;5025107;28;20072;-59
2022/06/12 16:11:21;;;;;;;2.20;0.93;;;;;;;32.22;31.77;98826.13;5019313;28;20025;-59
2022/06/12 16:13:47;;;;;;;1.55;0.80;;;;;;;32.30;31.81;98826.03;5030625;28;20413;-58